Time,TemperatureF,DewpointF,PressureIn,WindDirection,WindDirectionDegrees,WindSpeedMPH,WindSpeedGustMPH,Humidity,HourlyPrecipIn,Conditions,Clouds,dailyrainin,SoftwareType,DateUTC
2013-07-28 11:43:00,44.0,43.0,30.58,SW,233,7.0,15.0,97,0.11,,,0.32,,2013-07-28 18:43:00,
2013-07-28 11:52:00,46.0,45.0,30.57,SSW,213,6.0,15.0,97,0.13,,,0.34,,2013-07-28 18:52:00,
2013-07-28 12:02:00,47.0,46.0,30.56,SW,218,9.0,16.0,97,0.13,,,0.34,,2013-07-28 19:02:00,
2013-07-28 12:12:00,48.0,47.0,30.57,SW,218,5.0,18.0,97,0.14,,,0.35,,2013-07-28 19:12:00,
2013-07-28 12:32:00,47.0,46.0,30.57,SW,221,7.0,20.0,97,0.08,,,0.35,,2013-07-28 19:32:00,
2013-07-28 12:52:00,48.0,47.0,30.57,SSW,207,7.0,17.0,97,0.01,,,0.35,,2013-07-28 19:52:00,
2013-07-28 13:02:00,48.0,47.0,30.57,SSW,200,6.0,12.0,97,0.01,,,0.34,,2013-07-28 20:02:00,
2013-07-28 13:11:00,48.0,47.0,30.57,SW,221,7.0,12.0,97,0.00,,,0.33,,2013-07-28 20:11:00,
2013-07-28 13:22:00,48.0,47.0,30.56,SSW,204,7.0,16.0,97,0.00,,,0.33,,2013-07-28 20:22:00,
2013-07-28 13:32:00,48.0,47.0,30.56,SSW,208,8.0,16.0,97,0.00,,,0.33,,2013-07-28 20:32:00,
2013-07-28 13:43:00,48.0,47.0,30.56,SSW,204,7.0,16.0,97,0.00,,,0.33,,2013-07-28 20:43:00,
2013-07-28 13:52:00,49.0,48.0,30.56,SSW,203,6.0,15.0,97,0.00,,,0.33,,2013-07-28 20:52:00,
2013-07-28 14:01:00,48.0,47.0,30.55,SSW,196,8.0,16.0,97,0.00,,,0.33,,2013-07-28 21:01:00,
2013-07-28 14:11:00,48.0,47.0,30.55,SSW,197,7.0,14.0,97,0.00,,,0.33,,2013-07-28 21:11:00,
2013-07-28 14:32:00,47.0,46.0,30.54,SW,219,5.0,12.0,97,0.00,,,0.33,,2013-07-28 21:32:00,
2013-07-28 14:43:00,47.0,46.0,30.54,SW,231,6.0,15.0,97,0.01,,,0.33,,2013-07-28 21:43:00,
2013-07-28 14:52:00,47.0,46.0,30.55,South,173,8.0,12.0,97,0.03,,,0.35,,2013-07-28 21:52:00,
2013-07-28 15:01:00,47.0,46.0,30.53,SW,215,6.0,13.0,97,0.03,,,0.35,,2013-07-28 22:01:00,
2013-07-28 15:12:00,47.0,-99.9,30.53,South,187,8.0,16.0,-999,0.04,,,0.36,,2013-07-28 22:12:00,
2013-07-28 15:42:00,43.0,42.0,30.54,South,185,3.0,12.0,97,0.13,,,0.46,,2013-07-28 22:42:00,
2013-07-28 16:42:00,41.0,40.0,30.53,NNW,333,15.0,23.0,97,0.46,,,0.88,,2013-07-28 23:42:00,
2013-07-28 16:53:00,41.0,40.0,30.54,NNW,329,9.0,23.0,97,0.44,,,0.89,,2013-07-28 23:53:00,
2013-07-28 17:01:00,43.0,42.0,30.54,NNW,328,9.0,30.0,97,0.51,,,1.04,,2013-07-29 00:01:00,
2013-07-28 17:11:00,43.0,42.0,30.55,NNW,330,13.0,24.0,97,0.61,,,1.14,,2013-07-29 00:11:00,
2013-07-28 17:43:00,41.0,40.0,30.54,NNW,337,13.0,22.0,97,0.41,,,1.25,,2013-07-29 00:43:00,
2013-07-28 18:01:00,42.0,41.0,30.52,NW,320,7.0,16.0,97,0.25,,,1.26,,2013-07-29 01:01:00,
2013-07-28 18:11:00,42.0,41.0,30.53,NW,309,7.0,16.0,97,0.15,,,1.26,,2013-07-29 01:11:00,
2013-07-28 18:22:00,42.0,41.0,30.53,NW,306,6.0,17.0,97,0.06,,,1.26,,2013-07-29 01:22:00,
2013-07-28 18:42:00,43.0,42.0,30.54,SW,226,6.0,11.0,97,0.01,,,1.26,,2013-07-29 01:42:00,
2013-07-28 19:02:00,46.0,44.0,30.53,West,279,10.0,18.0,94,0.02,,,1.27,,2013-07-29 02:02:00,
2013-07-28 19:12:00,46.0,44.0,30.54,West,259,11.0,20.0,94,0.01,,,1.27,,2013-07-29 02:12:00,
2013-07-28 19:43:00,46.0,45.0,30.55,WSW,254,8.0,18.0,95,0.01,,,1.25,,2013-07-29 02:43:00,
2013-07-28 19:53:00,46.0,45.0,30.54,SW,219,8.0,14.0,96,0.00,,,1.23,,2013-07-29 02:53:00,
2013-07-28 20:02:00,45.0,44.0,30.55,SW,234,7.0,13.0,96,0.00,,,1.21,,2013-07-29 03:02:00,
2013-07-28 20:33:00,45.0,43.0,30.55,SSW,211,8.0,16.0,94,0.00,,,1.15,,2013-07-29 03:33:00,
2013-07-28 20:43:00,45.0,44.0,30.55,SW,230,6.0,14.0,95,0.00,,,1.15,,2013-07-29 03:43:00,
2013-07-28 20:52:00,45.0,44.0,30.55,SW,227,7.0,14.0,95,0.00,,,1.15,,2013-07-29 03:52:00,
2013-07-28 21:01:00,46.0,45.0,30.56,SW,232,8.0,15.0,95,0.00,,,1.15,,2013-07-29 04:01:00,
2013-07-28 21:11:00,46.0,45.0,30.56,SW,230,9.0,18.0,95,0.00,,,1.15,,2013-07-29 04:11:00,
2013-07-28 21:53:00,45.0,43.0,30.56,WSW,246,8.0,15.0,92,0.00,,,1.14,,2013-07-29 04:53:00,
2013-07-28 22:02:00,46.0,43.0,30.57,WSW,247,8.0,16.0,89,0.00,,,1.13,,2013-07-29 05:02:00,
2013-07-28 22:12:00,46.0,42.0,30.57,WSW,242,7.0,16.0,85,0.00,,,1.13,,2013-07-29 05:12:00,
2013-07-28 22:32:00,45.0,40.0,30.57,SW,228,8.0,18.0,84,0.00,,,1.13,,2013-07-29 05:32:00,
2013-07-28 22:53:00,46.0,41.0,30.57,WSW,238,6.0,15.0,84,0.00,,,1.13,,2013-07-29 05:53:00,
2013-07-28 23:02:00,46.0,43.0,30.57,SW,233,6.0,14.0,88,0.00,,,1.13,,2013-07-29 06:02:00,
2013-07-28 23:11:00,46.0,43.0,30.57,SW,227,5.0,12.0,89,0.00,,,1.13,,2013-07-29 06:11:00,
2013-07-28 23:52:00,43.0,41.0,30.56,South,179,6.0,22.0,91,0.08,,,1.21,,2013-07-29 06:52:00,